createdAt,value
2017-09-07T00:00:14.071Z,87.40
2017-09-07T00:02:40.406Z,87.10
2017-09-07T00:05:06.710Z,87.20
2017-09-07T00:07:33.590Z,87.80
2017-09-07T00:09:59.994Z,88.60
2017-09-07T00:12:26.359Z,90.10
2017-09-07T00:14:52.666Z,90.60
2017-09-07T00:17:18.973Z,90.90
2017-09-07T00:19:45.333Z,91.80
2017-09-07T00:22:11.613Z,91.60
2017-09-07T00:24:37.891Z,91.20
2017-09-07T00:27:04.224Z,91.30
2017-09-07T00:29:30.566Z,92.10
2017-09-07T00:31:56.890Z,91.80
2017-09-07T00:34:23.260Z,92.10
2017-09-07T00:36:49.577Z,92.00
2017-09-07T00:39:15.895Z,91.90
2017-09-07T00:41:42.206Z,92.10
2017-09-07T00:44:08.586Z,91.70
2017-09-07T00:46:35.021Z,91.90
2017-09-07T00:49:01.274Z,92.80
2017-09-07T00:51:27.570Z,92.90
2017-09-07T00:53:53.899Z,93.60
2017-09-07T00:56:20.363Z,94.00
2017-09-07T00:58:46.699Z,93.30
2017-09-07T01:01:13.011Z,93.50
2017-09-07T01:03:39.308Z,93.70
2017-09-07T01:06:05.624Z,92.90
2017-09-07T01:08:31.982Z,93.00
2017-09-07T01:10:58.417Z,93.20
2017-09-07T01:13:24.802Z,93.70
2017-09-07T01:15:51.107Z,94.30
2017-09-07T01:18:18.711Z,94.50
2017-09-07T01:20:45.062Z,94.60
2017-09-07T01:23:11.359Z,95.00
2017-09-07T01:25:37.635Z,94.60
2017-09-07T01:28:04.001Z,95.00
2017-09-07T01:30:30.324Z,95.30
2017-09-07T01:32:56.694Z,95.10
2017-09-07T01:35:23.000Z,94.50
2017-09-07T01:37:49.285Z,94.80
2017-09-07T01:40:15.586Z,93.50
2017-09-07T01:42:41.969Z,93.50
2017-09-07T01:45:08.308Z,93.40
2017-09-07T01:47:34.653Z,93.00
2017-09-07T01:50:01.045Z,92.60
2017-09-07T01:52:27.453Z,92.20
2017-09-07T01:54:53.750Z,91.70
2017-09-07T01:57:20.059Z,91.50
2017-09-07T01:59:46.418Z,91.10
2017-09-07T02:02:12.703Z,90.90
2017-09-07T02:04:39.036Z,90.60
2017-09-07T02:07:05.404Z,90.40
2017-09-07T02:09:31.725Z,89.80
2017-09-07T02:11:58.103Z,90.10
2017-09-07T02:14:24.413Z,89.00
2017-09-07T02:16:50.726Z,89.40
2017-09-07T02:19:17.110Z,89.60
2017-09-07T02:21:43.471Z,89.80
2017-09-07T02:24:09.893Z,90.20
2017-09-07T02:26:36.323Z,90.10
2017-09-07T02:29:02.658Z,90.10
2017-09-07T02:31:28.990Z,90.10
2017-09-07T02:33:55.351Z,90.60
2017-09-07T02:36:21.713Z,91.00
2017-09-07T02:38:47.978Z,90.70
2017-09-07T02:41:14.297Z,90.50
2017-09-07T02:43:40.581Z,90.90
2017-09-07T02:46:06.864Z,91.00
2017-09-07T02:48:33.179Z,90.50
2017-09-07T02:50:59.444Z,90.20
2017-09-07T02:53:25.767Z,90.30
2017-09-07T02:55:52.159Z,90.90
2017-09-07T02:58:18.416Z,91.50
2017-09-07T03:00:44.790Z,90.80
2017-09-07T03:03:11.070Z,90.90
2017-09-07T03:05:37.414Z,92.10
2017-09-07T03:08:03.714Z,92.90
2017-09-07T03:10:29.987Z,92.80
2017-09-07T03:12:56.360Z,92.70
2017-09-07T03:15:22.687Z,92.50
2017-09-07T03:17:49.103Z,92.50
2017-09-07T03:20:15.346Z,92.30
2017-09-07T03:22:41.680Z,92.00
2017-09-07T03:25:08.055Z,91.90
2017-09-07T03:27:34.572Z,91.90
2017-09-07T03:30:00.900Z,92.40
2017-09-07T03:32:27.188Z,92.50
2017-09-07T03:34:53.539Z,92.50
2017-09-07T03:37:19.875Z,91.70
2017-09-07T03:39:46.211Z,91.50
2017-09-07T03:42:12.532Z,92.10
2017-09-07T03:44:38.826Z,92.10
2017-09-07T03:47:05.149Z,91.50
2017-09-07T03:49:31.475Z,90.90
2017-09-07T03:51:57.864Z,91.10
2017-09-07T03:54:24.231Z,91.20
2017-09-07T03:56:50.641Z,90.60
2017-09-07T03:59:17.019Z,91.50
2017-09-07T04:01:43.360Z,91.60
2017-09-07T04:04:09.729Z,91.60
2017-09-07T04:06:36.057Z,93.40
2017-09-07T04:09:02.568Z,92.80
2017-09-07T04:11:28.876Z,93.10
2017-09-07T04:13:55.215Z,93.20
2017-09-07T04:16:21.633Z,92.80
2017-09-07T04:18:48.202Z,92.70
2017-09-07T04:21:14.481Z,92.80
2017-09-07T04:23:40.806Z,93.50
2017-09-07T04:26:07.163Z,93.50
2017-09-07T04:28:33.531Z,93.90
2017-09-07T04:30:59.864Z,94.20
2017-09-07T04:33:26.183Z,94.20
2017-09-07T04:35:52.524Z,94.70
2017-09-07T04:38:18.882Z,94.80
2017-09-07T04:40:45.173Z,94.90
2017-09-07T04:43:11.457Z,94.50
2017-09-07T04:45:37.828Z,94.20
2017-09-07T04:48:04.128Z,94.10
2017-09-07T04:50:30.457Z,94.00
2017-09-07T04:52:56.814Z,93.90
2017-09-07T04:55:23.205Z,93.70
2017-09-07T04:57:49.517Z,93.10
2017-09-07T05:00:15.743Z,93.00
2017-09-07T05:02:42.249Z,91.50
2017-09-07T05:05:08.555Z,91.70
2017-09-07T05:07:35.038Z,91.40
2017-09-07T05:10:01.368Z,91.70
2017-09-07T05:12:27.867Z,91.60
2017-09-07T05:14:54.227Z,91.50
2017-09-07T05:17:20.803Z,91.20
2017-09-07T05:19:47.083Z,91.00
2017-09-07T05:22:13.393Z,90.60
2017-09-07T05:24:39.833Z,90.90
2017-09-07T05:27:06.221Z,90.80
2017-09-07T05:29:32.537Z,90.50
2017-09-07T05:31:58.895Z,90.70
2017-09-07T05:34:25.453Z,90.50
2017-09-07T05:36:51.774Z,90.60
2017-09-07T05:39:18.075Z,90.60
2017-09-07T05:41:44.428Z,90.40
2017-09-07T05:44:10.841Z,90.10
2017-09-07T05:46:37.134Z,90.60
2017-09-07T05:49:03.584Z,90.20
2017-09-07T05:51:29.933Z,90.40
2017-09-07T05:53:56.220Z,90.10
2017-09-07T05:56:22.584Z,89.50
2017-09-07T05:58:48.972Z,89.50
2017-09-07T06:01:15.289Z,88.90
2017-09-07T06:03:41.621Z,89.80
2017-09-07T06:06:07.964Z,88.40
2017-09-07T06:08:34.300Z,89.10
2017-09-07T06:11:00.594Z,88.20
2017-09-07T06:13:26.899Z,88.80
2017-09-07T06:15:53.232Z,89.30
2017-09-07T06:18:20.552Z,87.70
2017-09-07T06:20:46.955Z,85.90
2017-09-07T06:23:13.312Z,84.80
2017-09-07T06:25:39.680Z,86.50
2017-09-07T06:28:05.984Z,85.50
2017-09-07T06:30:32.352Z,85.50
2017-09-07T06:32:58.704Z,85.10
2017-09-07T06:35:25.135Z,85.60
2017-09-07T06:37:51.537Z,83.70
2017-09-07T06:40:17.808Z,84.60
2017-09-07T06:42:44.165Z,82.50
2017-09-07T06:45:10.545Z,84.40
2017-09-07T06:47:37.253Z,82.70
2017-09-07T06:50:03.565Z,82.30
2017-09-07T06:52:29.883Z,80.70
2017-09-07T06:54:56.163Z,82.10
2017-09-07T06:57:22.460Z,80.70
2017-09-07T06:59:48.865Z,80.80
2017-09-07T07:02:15.173Z,81.50
2017-09-07T07:04:41.575Z,79.40
2017-09-07T07:07:08.013Z,80.50
2017-09-07T07:09:34.302Z,80.20
2017-09-07T07:12:00.564Z,81.40
2017-09-07T07:14:27.633Z,81.30
2017-09-07T07:16:53.874Z,80.10
2017-09-07T07:19:20.392Z,79.00
2017-09-07T07:21:46.781Z,78.20
2017-09-07T07:24:13.094Z,77.90
2017-09-07T07:26:39.409Z,77.90
2017-09-07T07:29:05.735Z,78.60
2017-09-07T07:31:32.074Z,77.30
2017-09-07T07:33:58.435Z,78.40
2017-09-07T07:36:24.941Z,77.60
2017-09-07T07:38:51.284Z,78.10
2017-09-07T07:41:17.660Z,77.60
2017-09-07T07:43:44.078Z,78.20
2017-09-07T07:46:10.361Z,78.70
2017-09-07T07:48:36.679Z,77.30
2017-09-07T07:51:02.928Z,76.20
2017-09-07T07:53:29.315Z,75.60
2017-09-07T07:55:56.632Z,72.90
2017-09-07T07:58:22.977Z,75.90
2017-09-07T08:00:49.440Z,74.40
2017-09-07T08:03:15.925Z,74.90
2017-09-07T08:05:42.220Z,77.60
2017-09-07T08:08:08.525Z,76.70
2017-09-07T08:10:35.142Z,76.60
2017-09-07T08:13:01.506Z,76.30
2017-09-07T08:15:27.820Z,76.10
2017-09-07T08:17:54.138Z,77.90
2017-09-07T08:20:20.388Z,77.60
2017-09-07T08:22:46.885Z,80.10
2017-09-07T08:25:13.500Z,82.30
2017-09-07T08:27:40.004Z,80.60
2017-09-07T08:30:06.500Z,80.70
2017-09-07T08:32:32.757Z,78.20
2017-09-07T08:34:59.604Z,80.10
2017-09-07T08:37:25.864Z,83.10
2017-09-07T08:39:52.213Z,80.80
2017-09-07T08:42:18.451Z,80.30
2017-09-07T08:44:44.842Z,78.80
2017-09-07T08:47:11.212Z,77.80
2017-09-07T08:49:37.478Z,79.10
2017-09-07T08:52:03.761Z,78.20
2017-09-07T08:54:31.301Z,78.50
2017-09-07T08:56:57.613Z,78.40
2017-09-07T08:59:24.043Z,80.00
2017-09-07T09:01:50.494Z,78.30
2017-09-07T09:04:16.927Z,77.20
2017-09-07T09:06:43.221Z,78.40
2017-09-07T09:09:09.506Z,78.40
2017-09-07T09:11:35.958Z,75.70
2017-09-07T09:14:02.229Z,76.60
2017-09-07T09:16:28.631Z,75.20
2017-09-07T09:18:55.349Z,75.30
2017-09-07T09:21:21.776Z,76.50
2017-09-07T09:23:48.309Z,76.00
2017-09-07T09:26:14.548Z,75.60
2017-09-07T09:28:40.791Z,75.50
2017-09-07T09:31:07.165Z,74.00
2017-09-07T09:33:33.405Z,74.80
2017-09-07T09:35:59.921Z,73.30
2017-09-07T09:38:26.179Z,74.50
2017-09-07T09:40:52.543Z,74.50
2017-09-07T09:43:18.809Z,73.60
2017-09-07T09:45:45.277Z,72.70
2017-09-07T09:48:11.690Z,73.10
2017-09-07T09:50:38.007Z,73.40
2017-09-07T09:53:05.019Z,71.90
2017-09-07T09:55:31.571Z,69.20
2017-09-07T09:57:58.370Z,70.30
2017-09-07T10:00:24.591Z,71.80
2017-09-07T10:02:50.972Z,69.50
2017-09-07T10:05:17.409Z,71.50
2017-09-07T10:07:44.750Z,68.30
2017-09-07T10:10:11.193Z,69.40
2017-09-07T10:12:37.431Z,71.30
2017-09-07T10:15:03.760Z,69.30
2017-09-07T10:17:30.004Z,68.20
2017-09-07T10:19:56.265Z,67.10
2017-09-07T10:22:22.818Z,68.30
2017-09-07T10:24:49.501Z,69.20
2017-09-07T10:27:15.869Z,70.10
2017-09-07T10:29:42.167Z,69.10
2017-09-07T10:32:08.538Z,71.40
2017-09-07T10:34:34.882Z,68.90
2017-09-07T10:37:02.004Z,66.40
2017-09-07T10:39:28.431Z,66.50
2017-09-07T10:41:54.802Z,66.60
2017-09-07T10:44:21.085Z,68.50
2017-09-07T10:46:47.534Z,68.80
2017-09-07T10:49:13.993Z,65.80
2017-09-07T10:51:40.268Z,68.40
2017-09-07T10:54:06.594Z,67.50
2017-09-07T10:56:32.862Z,70.90
2017-09-07T10:58:59.489Z,69.00
2017-09-07T11:01:25.856Z,64.50
2017-09-07T11:03:52.070Z,62.80
2017-09-07T11:06:18.588Z,60.00
2017-09-07T11:08:44.851Z,60.70
2017-09-07T11:11:11.137Z,64.20
2017-09-07T11:13:37.467Z,68.00
2017-09-07T11:16:04.096Z,69.40
2017-09-07T11:18:30.792Z,69.40
2017-09-07T11:20:57.156Z,72.10
2017-09-07T11:23:23.403Z,72.60
2017-09-07T11:25:49.706Z,70.10
2017-09-07T11:28:16.064Z,67.70
2017-09-07T11:30:42.575Z,71.70
2017-09-07T11:33:09.093Z,67.80
2017-09-07T11:35:36.213Z,64.20
2017-09-07T11:38:02.510Z,61.10
2017-09-07T11:40:28.752Z,62.70
2017-09-07T11:42:55.166Z,60.80
2017-09-07T11:45:21.468Z,59.90
2017-09-07T11:47:47.817Z,58.30
2017-09-07T11:50:14.116Z,61.60
2017-09-07T11:52:40.584Z,59.90
2017-09-07T11:55:06.909Z,60.00
2017-09-07T11:57:33.782Z,61.80
2017-09-07T12:00:00.328Z,63.00
2017-09-07T12:02:26.565Z,59.40
2017-09-07T12:04:53.141Z,59.30
2017-09-07T12:07:19.441Z,59.90
2017-09-07T12:09:45.710Z,59.90
2017-09-07T12:12:12.132Z,57.60
2017-09-07T12:14:38.492Z,56.80
2017-09-07T12:17:05.310Z,54.20
2017-09-07T12:19:31.590Z,56.40
2017-09-07T12:21:57.970Z,53.80
2017-09-07T12:24:24.385Z,51.70
2017-09-07T12:26:50.653Z,53.40
2017-09-07T12:29:16.984Z,51.50
2017-09-07T12:31:43.321Z,51.50
2017-09-07T12:34:09.682Z,53.20
2017-09-07T12:36:36.087Z,52.60
2017-09-07T12:39:02.555Z,54.40
2017-09-07T12:41:28.969Z,53.70
2017-09-07T12:43:55.261Z,55.60
2017-09-07T12:46:21.569Z,55.30
2017-09-07T12:48:47.968Z,52.30
2017-09-07T12:51:14.369Z,51.10
2017-09-07T12:53:40.719Z,51.60
2017-09-07T12:56:07.165Z,52.30
2017-09-07T12:58:33.556Z,53.80
2017-09-07T13:01:00.072Z,53.30
2017-09-07T13:03:26.443Z,54.20
2017-09-07T13:05:52.783Z,55.40
2017-09-07T13:08:19.091Z,54.20
2017-09-07T13:10:45.489Z,54.70
2017-09-07T13:13:11.785Z,53.80
2017-09-07T13:15:38.112Z,52.60
2017-09-07T13:18:04.456Z,50.70
2017-09-07T13:20:30.881Z,53.70
2017-09-07T13:22:57.457Z,52.20
2017-09-07T13:25:25.179Z,53.40
2017-09-07T13:27:51.593Z,54.00
2017-09-07T13:30:17.876Z,52.70
2017-09-07T13:32:44.260Z,53.40
2017-09-07T13:35:10.604Z,54.90
2017-09-07T13:37:37.142Z,56.60
2017-09-07T13:40:03.620Z,55.90
2017-09-07T13:42:30.152Z,56.90
2017-09-07T13:44:56.530Z,58.10
2017-09-07T13:47:22.877Z,58.80
2017-09-07T13:49:49.184Z,59.10
2017-09-07T13:52:15.526Z,58.10
2017-09-07T13:54:41.791Z,59.60
2017-09-07T13:57:08.166Z,59.20
2017-09-07T13:59:34.647Z,60.20
2017-09-07T14:02:00.860Z,62.00
2017-09-07T14:04:27.127Z,60.40
2017-09-07T14:06:53.428Z,57.10
2017-09-07T14:09:19.770Z,58.60
2017-09-07T14:11:46.124Z,58.80
2017-09-07T14:14:12.437Z,57.30
2017-09-07T14:16:38.725Z,59.60
2017-09-07T14:19:05.268Z,58.60
2017-09-07T14:21:31.552Z,59.40
2017-09-07T14:23:57.816Z,62.10
2017-09-07T14:26:24.187Z,61.50
2017-09-07T14:28:50.475Z,61.90
2017-09-07T14:31:16.754Z,63.40
2017-09-07T14:33:43.201Z,62.10
2017-09-07T14:36:09.565Z,61.40
2017-09-07T14:38:35.920Z,63.20
2017-09-07T14:41:02.411Z,63.60
2017-09-07T14:43:28.854Z,59.70
2017-09-07T14:45:55.532Z,61.80
2017-09-07T14:48:21.779Z,63.10
2017-09-07T14:50:48.277Z,63.60
2017-09-07T14:53:14.530Z,63.60
2017-09-07T14:55:40.830Z,64.60
2017-09-07T14:58:07.305Z,64.30
2017-09-07T15:00:33.607Z,64.50
2017-09-07T15:03:00.114Z,65.20
2017-09-07T15:05:26.372Z,63.70
2017-09-07T15:07:52.888Z,63.60
2017-09-07T15:10:19.382Z,64.50
2017-09-07T15:12:45.804Z,65.70
2017-09-07T15:15:12.273Z,65.10
2017-09-07T15:17:38.552Z,65.60
2017-09-07T15:20:05.791Z,63.90
2017-09-07T15:22:32.108Z,64.00
2017-09-07T15:24:58.350Z,65.60
2017-09-07T15:27:25.163Z,67.70
2017-09-07T15:29:51.449Z,68.80
2017-09-07T15:32:17.912Z,70.20
2017-09-07T15:34:44.265Z,71.70
2017-09-07T15:37:10.605Z,72.80
2017-09-07T15:39:37.034Z,74.30
2017-09-07T15:42:03.407Z,72.60
2017-09-07T15:44:29.671Z,72.30
2017-09-07T15:46:55.941Z,75.20
2017-09-07T15:49:22.272Z,75.00
2017-09-07T15:51:48.481Z,73.70
2017-09-07T15:54:14.939Z,74.50
2017-09-07T15:56:41.418Z,75.10
2017-09-07T15:59:07.843Z,72.50
2017-09-07T16:01:34.502Z,69.10
2017-09-07T16:04:00.841Z,72.70
2017-09-07T16:06:27.147Z,76.00
2017-09-07T16:08:53.415Z,73.80
2017-09-07T16:11:19.817Z,74.70
2017-09-07T16:13:46.045Z,71.60
2017-09-07T16:16:12.338Z,69.90
2017-09-07T16:18:38.873Z,69.60
2017-09-07T16:21:05.191Z,68.80
2017-09-07T16:23:31.581Z,71.50
2017-09-07T16:25:57.841Z,74.30
2017-09-07T16:28:24.079Z,67.70
2017-09-07T16:30:50.431Z,66.40
2017-09-07T16:33:16.711Z,66.60
2017-09-07T16:35:43.005Z,67.40
2017-09-07T16:38:09.666Z,69.20
2017-09-07T16:40:35.931Z,68.10
2017-09-07T16:43:41.321Z,71.20
2017-09-07T16:46:07.540Z,72.50
2017-09-07T16:48:33.874Z,73.10
2017-09-07T16:51:00.183Z,74.80
2017-09-07T16:53:26.498Z,77.80
2017-09-07T16:55:53.493Z,79.70
2017-09-07T16:58:19.795Z,79.10
2017-09-07T17:00:46.158Z,80.40
2017-09-07T17:03:12.434Z,79.00
2017-09-07T17:05:38.698Z,79.00
2017-09-07T17:08:05.010Z,80.40
2017-09-07T17:10:31.558Z,82.60
2017-09-07T17:12:57.974Z,81.60
2017-09-07T17:15:24.282Z,83.20
2017-09-07T17:17:50.679Z,83.70
2017-09-07T17:20:16.989Z,85.00
2017-09-07T17:22:43.293Z,84.60
2017-09-07T17:25:09.581Z,85.90
2017-09-07T17:27:36.039Z,87.00
2017-09-07T17:30:02.393Z,86.50
2017-09-07T17:32:28.848Z,87.80
2017-09-07T17:34:55.390Z,87.40
2017-09-07T17:37:21.749Z,87.30
2017-09-07T17:39:48.119Z,87.70
2017-09-07T17:42:14.444Z,88.40
2017-09-07T17:44:40.791Z,88.80
2017-09-07T17:47:07.072Z,90.20
2017-09-07T17:49:33.479Z,89.60
2017-09-07T17:51:59.830Z,91.10
2017-09-07T17:54:26.217Z,91.50
2017-09-07T17:56:53.591Z,92.20
2017-09-07T17:59:19.956Z,92.20
2017-09-07T18:01:46.221Z,92.30
2017-09-07T18:04:12.658Z,93.00
2017-09-07T18:06:38.969Z,92.80
2017-09-07T18:09:05.349Z,93.10
2017-09-07T18:11:31.755Z,93.10
2017-09-07T18:13:58.315Z,93.60
2017-09-07T18:16:24.687Z,93.90
2017-09-07T18:18:51.052Z,94.30
2017-09-07T18:21:17.420Z,94.20
2017-09-07T18:23:43.718Z,94.90
2017-09-07T18:26:10.065Z,95.40
2017-09-07T18:28:36.436Z,95.70
2017-09-07T18:31:02.862Z,96.70
2017-09-07T18:33:29.261Z,96.70
2017-09-07T18:35:55.618Z,97.00
2017-09-07T18:38:22.036Z,97.10
2017-09-07T18:40:48.456Z,97.40
2017-09-07T18:43:14.827Z,97.80
2017-09-07T18:45:41.144Z,97.90
2017-09-07T18:48:07.439Z,97.80
2017-09-07T18:50:33.786Z,98.00
2017-09-07T18:53:00.110Z,98.50
2017-09-07T18:55:26.467Z,98.70
2017-09-07T18:57:52.831Z,98.50
2017-09-07T19:00:19.185Z,98.50
2017-09-07T19:02:45.524Z,98.50
2017-09-07T19:05:11.917Z,98.50
2017-09-07T19:07:38.292Z,98.50
2017-09-07T19:10:04.697Z,98.70
2017-09-07T19:12:31.007Z,98.70
2017-09-07T19:14:57.324Z,98.70
2017-09-07T19:17:23.695Z,98.70
2017-09-07T19:19:49.953Z,98.80
2017-09-07T19:22:16.384Z,99.30
2017-09-07T19:24:42.727Z,99.20
2017-09-07T19:27:09.089Z,99.20
2017-09-07T19:29:35.417Z,99.20
2017-09-07T19:32:03.023Z,99.30
2017-09-07T19:34:29.327Z,99.60
2017-09-07T19:36:55.806Z,99.50
2017-09-07T19:39:22.201Z,99.90
2017-09-07T19:41:48.553Z,99.90
2017-09-07T19:44:14.954Z,99.90
2017-09-07T19:46:41.359Z,99.90
2017-09-07T19:49:07.807Z,99.90
2017-09-07T19:51:34.201Z,99.90
2017-09-07T19:54:00.670Z,99.90
2017-09-07T19:56:27.647Z,99.90
2017-09-07T19:58:53.981Z,99.90
2017-09-07T20:01:20.360Z,99.90
2017-09-07T20:03:46.763Z,99.90
2017-09-07T20:06:13.117Z,99.90
2017-09-07T20:08:39.454Z,99.90
2017-09-07T20:11:05.769Z,99.90
2017-09-07T20:13:32.092Z,99.90
2017-09-07T20:15:58.417Z,99.90
2017-09-07T20:18:25.535Z,99.90
2017-09-07T20:20:51.986Z,99.90
2017-09-07T20:23:18.336Z,99.90
2017-09-07T20:25:44.759Z,99.90
2017-09-07T20:28:11.136Z,99.90
2017-09-07T20:30:37.499Z,99.90
2017-09-07T20:33:03.964Z,99.90
2017-09-07T20:35:30.386Z,99.90
2017-09-07T20:37:56.746Z,99.90
2017-09-07T20:40:23.055Z,99.90
2017-09-07T20:42:49.426Z,99.90
2017-09-07T20:45:15.722Z,99.90
2017-09-07T20:47:42.864Z,99.90
2017-09-07T20:50:09.189Z,99.90
2017-09-07T20:52:35.499Z,99.90
2017-09-07T20:55:01.953Z,99.90
2017-09-07T20:57:28.334Z,99.90
2017-09-07T20:59:54.686Z,99.90
2017-09-07T21:02:21.750Z,99.90
2017-09-07T21:04:48.091Z,99.90
2017-09-07T21:07:14.472Z,99.90
2017-09-07T21:09:40.807Z,99.90
2017-09-07T21:12:07.120Z,99.90
2017-09-07T21:14:33.371Z,99.80
2017-09-07T21:16:59.699Z,98.40
2017-09-07T21:19:26.009Z,98.00
2017-09-07T21:21:52.394Z,97.60
2017-09-07T21:24:18.734Z,97.30
2017-09-07T21:26:45.056Z,96.60
2017-09-07T21:29:11.365Z,96.10
2017-09-07T21:31:37.625Z,95.90
2017-09-07T21:34:03.936Z,95.30
2017-09-07T21:36:30.388Z,94.60
2017-09-07T21:38:56.746Z,94.30
2017-09-07T21:41:23.085Z,94.40
2017-09-07T21:43:49.346Z,94.70
2017-09-07T21:46:15.720Z,94.60
2017-09-07T21:48:42.042Z,93.90
2017-09-07T21:51:08.349Z,94.50
2017-09-07T21:53:34.740Z,93.50
2017-09-07T21:56:01.001Z,94.00
2017-09-07T21:58:27.307Z,92.80
2017-09-07T22:00:53.545Z,93.20
2017-09-07T22:03:19.856Z,92.70
2017-09-07T22:05:46.204Z,92.00
2017-09-07T22:08:12.519Z,92.10
2017-09-07T22:10:38.885Z,91.90
2017-09-07T22:13:05.109Z,91.60
2017-09-07T22:15:31.523Z,91.10
2017-09-07T22:17:57.911Z,91.40
2017-09-07T22:20:24.147Z,91.50
2017-09-07T22:22:50.458Z,91.10
2017-09-07T22:25:16.770Z,90.90
2017-09-07T22:27:43.114Z,90.80
2017-09-07T22:30:09.533Z,90.40
2017-09-07T22:32:35.863Z,91.50
2017-09-07T22:35:02.147Z,92.10
2017-09-07T22:37:30.390Z,92.20
2017-09-07T22:39:57.474Z,92.60
2017-09-07T22:42:23.818Z,92.50
2017-09-07T22:44:50.472Z,92.20
2017-09-07T22:47:16.922Z,92.30
2017-09-07T22:49:43.147Z,92.30
2017-09-07T22:52:09.534Z,91.80
2017-09-07T22:54:35.800Z,90.60
2017-09-07T22:57:02.286Z,90.70
2017-09-07T22:59:28.822Z,89.90
2017-09-07T23:01:55.085Z,90.10
2017-09-07T23:04:21.507Z,89.60
2017-09-07T23:06:47.876Z,89.60
2017-09-07T23:09:14.235Z,90.00
2017-09-07T23:11:40.531Z,90.50
2017-09-07T23:14:06.916Z,91.10
2017-09-07T23:16:33.972Z,91.50
2017-09-07T23:19:00.461Z,91.30
2017-09-07T23:21:26.707Z,91.20
2017-09-07T23:23:53.034Z,91.10
2017-09-07T23:26:19.357Z,91.90
2017-09-07T23:28:45.676Z,91.90
2017-09-07T23:31:11.985Z,92.00
2017-09-07T23:33:38.300Z,92.50
2017-09-07T23:36:04.695Z,93.00
2017-09-07T23:38:31.056Z,93.40
2017-09-07T23:40:57.486Z,93.80
2017-09-07T23:43:24.671Z,94.40
2017-09-07T23:45:50.888Z,93.80
2017-09-07T23:48:17.292Z,93.50
2017-09-07T23:50:43.792Z,92.80
2017-09-07T23:53:10.097Z,93.10
2017-09-07T23:55:36.335Z,92.50
2017-09-07T23:58:02.651Z,92.80
